sensor_id;sensor_type;location;lat;lon;timestamp;temperature;humidity
22416;DHT22;12204;50.600;4.608;2023-05-29T00:04:38;25.20;61.20
22416;DHT22;12204;50.600;4.608;2023-05-29T00:09:42;25.20;60.90
22416;DHT22;12204;50.600;4.608;2023-05-29T00:14:45;25.20;61.30
22416;DHT22;12204;50.600;4.608;2023-05-29T00:19:50;25.20;61.60
22416;DHT22;12204;50.600;4.608;2023-05-29T00:24:54;25.20;61.50
22416;DHT22;12204;50.600;4.608;2023-05-29T00:29:57;25.20;61.80
22416;DHT22;12204;50.600;4.608;2023-05-29T00:35:03;25.20;61.90
22416;DHT22;12204;50.600;4.608;2023-05-29T00:40:08;25.20;62.00
22416;DHT22;12204;50.600;4.608;2023-05-29T00:45:13;25.20;61.80
22416;DHT22;12204;50.600;4.608;2023-05-29T00:50:21;25.20;62.10
22416;DHT22;12204;50.600;4.608;2023-05-29T00:55:26;25.20;61.90
22416;DHT22;12204;50.600;4.608;2023-05-29T01:00:30;25.20;63.10
22416;DHT22;12204;50.600;4.608;2023-05-29T01:05:36;25.20;63.00
22416;DHT22;12204;50.600;4.608;2023-05-29T01:10:40;25.30;62.90
22416;DHT22;12204;50.600;4.608;2023-05-29T01:15:49;25.30;62.90
22416;DHT22;12204;50.600;4.608;2023-05-29T01:21:03;25.30;63.10
22416;DHT22;12204;50.600;4.608;2023-05-29T01:26:34;25.30;63.00
22416;DHT22;12204;50.600;4.608;2023-05-29T01:31:46;25.30;62.80
22416;DHT22;12204;50.600;4.608;2023-05-29T01:36:51;25.30;62.80
22416;DHT22;12204;50.600;4.608;2023-05-29T01:41:56;25.20;62.50
22416;DHT22;12204;50.600;4.608;2023-05-29T01:46:59;25.20;62.70
22416;DHT22;12204;50.600;4.608;2023-05-29T01:52:03;25.30;62.50
22416;DHT22;12204;50.600;4.608;2023-05-29T01:57:09;25.20;62.40
22416;DHT22;12204;50.600;4.608;2023-05-29T02:02:13;25.30;62.20
22416;DHT22;12204;50.600;4.608;2023-05-29T02:07:17;25.30;62.60
22416;DHT22;12204;50.600;4.608;2023-05-29T02:12:22;25.30;63.30
22416;DHT22;12204;50.600;4.608;2023-05-29T02:17:26;25.30;62.50
22416;DHT22;12204;50.600;4.608;2023-05-29T02:22:29;25.30;62.40
22416;DHT22;12204;50.600;4.608;2023-05-29T02:27:35;25.30;62.30
22416;DHT22;12204;50.600;4.608;2023-05-29T02:32:40;25.30;62.40
22416;DHT22;12204;50.600;4.608;2023-05-29T02:37:44;25.30;62.40
22416;DHT22;12204;50.600;4.608;2023-05-29T02:42:51;25.30;62.40
22416;DHT22;12204;50.600;4.608;2023-05-29T02:47:55;25.30;62.10
22416;DHT22;12204;50.600;4.608;2023-05-29T02:53:01;25.30;62.30
22416;DHT22;12204;50.600;4.608;2023-05-29T02:58:06;25.30;62.30
22416;DHT22;12204;50.600;4.608;2023-05-29T03:03:09;25.30;62.30
22416;DHT22;12204;50.600;4.608;2023-05-29T03:08:14;25.30;62.20
22416;DHT22;12204;50.600;4.608;2023-05-29T03:13:19;25.30;62.00
22416;DHT22;12204;50.600;4.608;2023-05-29T03:18:29;25.30;62.10
22416;DHT22;12204;50.600;4.608;2023-05-29T03:23:34;25.30;62.20
22416;DHT22;12204;50.600;4.608;2023-05-29T03:28:39;25.20;62.20
22416;DHT22;12204;50.600;4.608;2023-05-29T03:33:44;25.20;62.10
22416;DHT22;12204;50.600;4.608;2023-05-29T03:39:03;25.30;62.60
22416;DHT22;12204;50.600;4.608;2023-05-29T03:44:08;25.30;62.80
22416;DHT22;12204;50.600;4.608;2023-05-29T03:49:11;25.20;62.60
22416;DHT22;12204;50.600;4.608;2023-05-29T03:54:17;25.30;62.60
22416;DHT22;12204;50.600;4.608;2023-05-29T03:59:22;25.20;62.50
22416;DHT22;12204;50.600;4.608;2023-05-29T04:04:25;25.20;62.30
22416;DHT22;12204;50.600;4.608;2023-05-29T04:09:29;25.20;62.20
22416;DHT22;12204;50.600;4.608;2023-05-29T04:14:36;25.20;62.10
22416;DHT22;12204;50.600;4.608;2023-05-29T04:19:40;25.20;62.00
22416;DHT22;12204;50.600;4.608;2023-05-29T04:24:43;25.20;61.90
22416;DHT22;12204;50.600;4.608;2023-05-29T04:29:50;25.20;62.30
22416;DHT22;12204;50.600;4.608;2023-05-29T04:34:53;25.20;62.20
22416;DHT22;12204;50.600;4.608;2023-05-29T04:39:58;25.20;62.10
22416;DHT22;12204;50.600;4.608;2023-05-29T04:45:04;25.20;62.10
22416;DHT22;12204;50.600;4.608;2023-05-29T04:50:13;25.20;62.10
22416;DHT22;12204;50.600;4.608;2023-05-29T04:55:18;25.20;62.10
22416;DHT22;12204;50.600;4.608;2023-05-29T05:00:24;25.20;61.90
22416;DHT22;12204;50.600;4.608;2023-05-29T05:05:28;25.20;62.10
22416;DHT22;12204;50.600;4.608;2023-05-29T05:10:34;25.20;61.90
22416;DHT22;12204;50.600;4.608;2023-05-29T05:15:39;25.20;62.10
22416;DHT22;12204;50.600;4.608;2023-05-29T05:20:43;25.20;62.20
22416;DHT22;12204;50.600;4.608;2023-05-29T05:25:48;25.20;62.10
22416;DHT22;12204;50.600;4.608;2023-05-29T05:30:53;25.20;61.80
22416;DHT22;12204;50.600;4.608;2023-05-29T05:35:57;25.20;61.50
22416;DHT22;12204;50.600;4.608;2023-05-29T05:41:01;25.10;61.40
22416;DHT22;12204;50.600;4.608;2023-05-29T05:46:08;25.10;61.40
22416;DHT22;12204;50.600;4.608;2023-05-29T05:51:13;25.10;61.40
22416;DHT22;12204;50.600;4.608;2023-05-29T05:56:17;25.10;61.20
22416;DHT22;12204;50.600;4.608;2023-05-29T06:01:22;25.10;61.70
22416;DHT22;12204;50.600;4.608;2023-05-29T06:06:26;25.10;61.70
22416;DHT22;12204;50.600;4.608;2023-05-29T06:11:29;25.10;61.80
22416;DHT22;12204;50.600;4.608;2023-05-29T06:16:34;25.20;59.90
22416;DHT22;12204;50.600;4.608;2023-05-29T06:21:38;25.10;58.80
22416;DHT22;12204;50.600;4.608;2023-05-29T06:26:42;25.10;58.00
22416;DHT22;12204;50.600;4.608;2023-05-29T06:31:48;25.10;57.50
22416;DHT22;12204;50.600;4.608;2023-05-29T06:36:53;25.10;57.20
22416;DHT22;12204;50.600;4.608;2023-05-29T06:41:56;25.00;56.80
22416;DHT22;12204;50.600;4.608;2023-05-29T06:47:01;25.00;56.50
22416;DHT22;12204;50.600;4.608;2023-05-29T06:52:05;25.00;57.40
22416;DHT22;12204;50.600;4.608;2023-05-29T06:57:38;24.90;56.60
22416;DHT22;12204;50.600;4.608;2023-05-29T07:02:43;24.90;56.60
22416;DHT22;12204;50.600;4.608;2023-05-29T07:07:46;24.90;56.50
22416;DHT22;12204;50.600;4.608;2023-05-29T07:12:50;24.80;56.30
22416;DHT22;12204;50.600;4.608;2023-05-29T07:17:56;24.90;56.40
22416;DHT22;12204;50.600;4.608;2023-05-29T07:23:03;24.80;55.80
22416;DHT22;12204;50.600;4.608;2023-05-29T07:28:07;24.70;55.10
22416;DHT22;12204;50.600;4.608;2023-05-29T07:33:24;24.60;54.80
22416;DHT22;12204;50.600;4.608;2023-05-29T07:38:31;24.60;54.30
22416;DHT22;12204;50.600;4.608;2023-05-29T07:43:35;24.50;54.30
22416;DHT22;12204;50.600;4.608;2023-05-29T07:48:42;24.40;54.20
22416;DHT22;12204;50.600;4.608;2023-05-29T07:53:47;24.30;54.30
22416;DHT22;12204;50.600;4.608;2023-05-29T07:58:51;24.20;54.00
22416;DHT22;12204;50.600;4.608;2023-05-29T08:03:57;24.20;53.90
22416;DHT22;12204;50.600;4.608;2023-05-29T08:09:05;24.20;53.80
22416;DHT22;12204;50.600;4.608;2023-05-29T08:14:09;24.10;53.60
22416;DHT22;12204;50.600;4.608;2023-05-29T08:19:15;24.10;53.90
22416;DHT22;12204;50.600;4.608;2023-05-29T08:24:19;24.10;53.90
22416;DHT22;12204;50.600;4.608;2023-05-29T08:29:22;24.10;53.90
22416;DHT22;12204;50.600;4.608;2023-05-29T08:34:27;24.10;53.90
22416;DHT22;12204;50.600;4.608;2023-05-29T08:39:30;24.10;54.00
22416;DHT22;12204;50.600;4.608;2023-05-29T08:44:35;24.10;54.00
22416;DHT22;12204;50.600;4.608;2023-05-29T08:49:47;24.10;54.00
22416;DHT22;12204;50.600;4.608;2023-05-29T08:54:56;24.10;53.90
22416;DHT22;12204;50.600;4.608;2023-05-29T09:00:00;24.10;54.00
22416;DHT22;12204;50.600;4.608;2023-05-29T09:05:11;24.10;54.30
22416;DHT22;12204;50.600;4.608;2023-05-29T09:10:15;24.10;54.30
22416;DHT22;12204;50.600;4.608;2023-05-29T09:15:19;24.10;54.20
22416;DHT22;12204;50.600;4.608;2023-05-29T09:20:26;24.20;54.30
22416;DHT22;12204;50.600;4.608;2023-05-29T09:25:32;24.20;54.30
22416;DHT22;12204;50.600;4.608;2023-05-29T09:30:38;24.20;54.30
22416;DHT22;12204;50.600;4.608;2023-05-29T09:35:47;24.20;54.20
22416;DHT22;12204;50.600;4.608;2023-05-29T09:40:52;24.20;54.30
22416;DHT22;12204;50.600;4.608;2023-05-29T09:46:01;24.30;54.40
22416;DHT22;12204;50.600;4.608;2023-05-29T09:51:06;24.30;54.40
22416;DHT22;12204;50.600;4.608;2023-05-29T09:56:24;24.30;54.50
22416;DHT22;12204;50.600;4.608;2023-05-29T10:01:28;24.30;54.40
22416;DHT22;12204;50.600;4.608;2023-05-29T10:06:35;24.30;54.30
22416;DHT22;12204;50.600;4.608;2023-05-29T10:11:42;24.30;54.30
22416;DHT22;12204;50.600;4.608;2023-05-29T10:16:47;24.30;54.20
22416;DHT22;12204;50.600;4.608;2023-05-29T10:21:54;24.30;54.10
22416;DHT22;12204;50.600;4.608;2023-05-29T10:26:59;24.30;54.10
22416;DHT22;12204;50.600;4.608;2023-05-29T10:32:17;24.40;54.10
22416;DHT22;12204;50.600;4.608;2023-05-29T10:37:32;24.40;54.20
22416;DHT22;12204;50.600;4.608;2023-05-29T10:42:43;24.40;54.20
22416;DHT22;12204;50.600;4.608;2023-05-29T10:47:51;24.40;54.10
22416;DHT22;12204;50.600;4.608;2023-05-29T10:52:56;24.40;54.20
22416;DHT22;12204;50.600;4.608;2023-05-29T10:58:04;24.40;54.20
22416;DHT22;12204;50.600;4.608;2023-05-29T11:03:08;24.40;54.30
22416;DHT22;12204;50.600;4.608;2023-05-29T11:08:13;24.40;54.20
22416;DHT22;12204;50.600;4.608;2023-05-29T11:13:24;24.40;54.20
22416;DHT22;12204;50.600;4.608;2023-05-29T11:18:29;24.40;54.60
22416;DHT22;12204;50.600;4.608;2023-05-29T11:23:37;24.40;54.20
22416;DHT22;12204;50.600;4.608;2023-05-29T11:28:43;24.40;54.20
22416;DHT22;12204;50.600;4.608;2023-05-29T11:33:48;24.40;54.20
22416;DHT22;12204;50.600;4.608;2023-05-29T11:38:54;24.50;54.40
22416;DHT22;12204;50.600;4.608;2023-05-29T11:43:58;24.50;54.30
22416;DHT22;12204;50.600;4.608;2023-05-29T11:49:04;24.50;54.30
22416;DHT22;12204;50.600;4.608;2023-05-29T11:54:12;24.50;54.20
22416;DHT22;12204;50.600;4.608;2023-05-29T11:59:15;24.50;54.00
22416;DHT22;12204;50.600;4.608;2023-05-29T12:04:19;24.50;54.30
22416;DHT22;12204;50.600;4.608;2023-05-29T12:09:27;24.50;54.10
22416;DHT22;12204;50.600;4.608;2023-05-29T12:14:33;24.50;54.00
22416;DHT22;12204;50.600;4.608;2023-05-29T12:19:36;24.50;54.20
22416;DHT22;12204;50.600;4.608;2023-05-29T12:24:41;24.50;54.20
22416;DHT22;12204;50.600;4.608;2023-05-29T12:29:45;24.50;54.60
22416;DHT22;12204;50.600;4.608;2023-05-29T12:34:49;24.50;54.10
22416;DHT22;12204;50.600;4.608;2023-05-29T12:45:32;24.60;54.30
22416;DHT22;12204;50.600;4.608;2023-05-29T12:50:38;24.60;54.10
22416;DHT22;12204;50.600;4.608;2023-05-29T12:55:46;24.60;54.20
22416;DHT22;12204;50.600;4.608;2023-05-29T13:00:53;24.60;54.20
22416;DHT22;12204;50.600;4.608;2023-05-29T13:05:58;24.60;54.00
22416;DHT22;12204;50.600;4.608;2023-05-29T13:11:03;24.60;53.90
22416;DHT22;12204;50.600;4.608;2023-05-29T13:16:07;24.60;53.90
22416;DHT22;12204;50.600;4.608;2023-05-29T13:21:10;24.60;54.10
22416;DHT22;12204;50.600;4.608;2023-05-29T13:26:15;24.70;53.90
22416;DHT22;12204;50.600;4.608;2023-05-29T13:31:18;24.60;52.90
22416;DHT22;12204;50.600;4.608;2023-05-29T13:36:22;24.70;53.00
22416;DHT22;12204;50.600;4.608;2023-05-29T13:41:27;24.60;52.80
22416;DHT22;12204;50.600;4.608;2023-05-29T13:46:31;24.70;52.90
22416;DHT22;12204;50.600;4.608;2023-05-29T13:51:34;24.70;52.90
22416;DHT22;12204;50.600;4.608;2023-05-29T13:56:39;24.70;53.10
22416;DHT22;12204;50.600;4.608;2023-05-29T14:01:45;24.70;52.00
22416;DHT22;12204;50.600;4.608;2023-05-29T14:06:50;24.70;52.20
22416;DHT22;12204;50.600;4.608;2023-05-29T14:11:56;24.70;52.20
22416;DHT22;12204;50.600;4.608;2023-05-29T14:17:01;24.70;51.70
22416;DHT22;12204;50.600;4.608;2023-05-29T14:22:07;24.70;52.20
22416;DHT22;12204;50.600;4.608;2023-05-29T14:27:12;24.80;52.10
22416;DHT22;12204;50.600;4.608;2023-05-29T14:32:15;24.80;51.90
22416;DHT22;12204;50.600;4.608;2023-05-29T14:37:18;24.80;51.60
22416;DHT22;12204;50.600;4.608;2023-05-29T14:42:23;24.80;51.10
22416;DHT22;12204;50.600;4.608;2023-05-29T14:47:27;24.80;52.10
22416;DHT22;12204;50.600;4.608;2023-05-29T14:52:33;24.90;52.90
22416;DHT22;12204;50.600;4.608;2023-05-29T14:57:38;24.90;51.40
22416;DHT22;12204;50.600;4.608;2023-05-29T15:02:41;24.90;51.10
22416;DHT22;12204;50.600;4.608;2023-05-29T15:07:45;24.90;51.10
22416;DHT22;12204;50.600;4.608;2023-05-29T15:12:50;24.90;50.90
22416;DHT22;12204;50.600;4.608;2023-05-29T15:17:58;25.00;51.80
22416;DHT22;12204;50.600;4.608;2023-05-29T15:23:03;25.00;50.70
22416;DHT22;12204;50.600;4.608;2023-05-29T15:28:08;25.10;50.50
22416;DHT22;12204;50.600;4.608;2023-05-29T15:33:13;25.10;51.70
22416;DHT22;12204;50.600;4.608;2023-05-29T15:38:16;25.10;50.30
22416;DHT22;12204;50.600;4.608;2023-05-29T15:43:21;25.10;51.00
22416;DHT22;12204;50.600;4.608;2023-05-29T15:48:25;25.10;50.90
22416;DHT22;12204;50.600;4.608;2023-05-29T15:53:28;25.10;51.30
22416;DHT22;12204;50.600;4.608;2023-05-29T15:58:33;25.10;52.00
22416;DHT22;12204;50.600;4.608;2023-05-29T16:03:37;25.20;52.20
22416;DHT22;12204;50.600;4.608;2023-05-29T16:08:41;25.20;51.70
22416;DHT22;12204;50.600;4.608;2023-05-29T16:13:46;25.20;52.00
22416;DHT22;12204;50.600;4.608;2023-05-29T16:18:49;25.20;51.40
22416;DHT22;12204;50.600;4.608;2023-05-29T16:23:53;25.20;51.40
22416;DHT22;12204;50.600;4.608;2023-05-29T16:29:02;25.20;51.50
22416;DHT22;12204;50.600;4.608;2023-05-29T16:34:06;25.20;51.40
22416;DHT22;12204;50.600;4.608;2023-05-29T16:39:10;25.20;51.20
22416;DHT22;12204;50.600;4.608;2023-05-29T16:44:15;25.30;51.40
22416;DHT22;12204;50.600;4.608;2023-05-29T16:49:18;25.20;50.90
22416;DHT22;12204;50.600;4.608;2023-05-29T16:54:24;25.20;50.60
22416;DHT22;12204;50.600;4.608;2023-05-29T16:59:31;25.10;50.00
22416;DHT22;12204;50.600;4.608;2023-05-29T17:04:34;25.10;51.30
22416;DHT22;12204;50.600;4.608;2023-05-29T17:09:38;25.10;51.00
22416;DHT22;12204;50.600;4.608;2023-05-29T17:14:43;25.10;51.10
22416;DHT22;12204;50.600;4.608;2023-05-29T17:19:46;25.10;50.10
22416;DHT22;12204;50.600;4.608;2023-05-29T17:24:50;25.10;49.70
22416;DHT22;12204;50.600;4.608;2023-05-29T17:29:55;25.10;48.90
22416;DHT22;12204;50.600;4.608;2023-05-29T17:34:59;25.10;48.70
22416;DHT22;12204;50.600;4.608;2023-05-29T17:40:03;25.20;49.90
22416;DHT22;12204;50.600;4.608;2023-05-29T17:45:10;25.30;49.80
22416;DHT22;12204;50.600;4.608;2023-05-29T17:50:15;25.30;50.30
22416;DHT22;12204;50.600;4.608;2023-05-29T17:55:19;25.30;50.30
22416;DHT22;12204;50.600;4.608;2023-05-29T18:00:24;25.30;50.70
22416;DHT22;12204;50.600;4.608;2023-05-29T18:05:28;25.40;51.10
22416;DHT22;12204;50.600;4.608;2023-05-29T18:10:32;25.30;51.20
22416;DHT22;12204;50.600;4.608;2023-05-29T18:15:37;25.40;51.40
22416;DHT22;12204;50.600;4.608;2023-05-29T18:20:41;25.50;51.70
22416;DHT22;12204;50.600;4.608;2023-05-29T18:25:44;25.40;51.70
22416;DHT22;12204;50.600;4.608;2023-05-29T18:30:49;25.50;51.70
22416;DHT22;12204;50.600;4.608;2023-05-29T18:35:54;25.50;52.30
22416;DHT22;12204;50.600;4.608;2023-05-29T18:40:58;25.50;52.20
22416;DHT22;12204;50.600;4.608;2023-05-29T18:46:03;25.60;52.50
22416;DHT22;12204;50.600;4.608;2023-05-29T18:51:07;25.60;52.70
22416;DHT22;12204;50.600;4.608;2023-05-29T18:56:10;25.60;52.80
22416;DHT22;12204;50.600;4.608;2023-05-29T19:01:15;25.60;53.00
22416;DHT22;12204;50.600;4.608;2023-05-29T19:06:33;25.70;53.20
22416;DHT22;12204;50.600;4.608;2023-05-29T19:11:37;25.70;53.00
22416;DHT22;12204;50.600;4.608;2023-05-29T19:16:46;25.70;52.50
22416;DHT22;12204;50.600;4.608;2023-05-29T19:21:50;25.60;52.30
22416;DHT22;12204;50.600;4.608;2023-05-29T19:26:53;25.60;52.00
22416;DHT22;12204;50.600;4.608;2023-05-29T19:31:58;25.60;51.80
22416;DHT22;12204;50.600;4.608;2023-05-29T19:37:02;25.60;51.90
22416;DHT22;12204;50.600;4.608;2023-05-29T19:42:07;25.60;52.50
22416;DHT22;12204;50.600;4.608;2023-05-29T19:47:12;25.50;52.00
22416;DHT22;12204;50.600;4.608;2023-05-29T19:52:16;25.30;51.40
22416;DHT22;12204;50.600;4.608;2023-05-29T19:57:20;25.30;50.90
22416;DHT22;12204;50.600;4.608;2023-05-29T20:02:24;25.30;50.90
22416;DHT22;12204;50.600;4.608;2023-05-29T20:07:34;25.30;50.90
22416;DHT22;12204;50.600;4.608;2023-05-29T20:12:38;25.30;51.80
22416;DHT22;12204;50.600;4.608;2023-05-29T20:17:43;25.30;51.10
22416;DHT22;12204;50.600;4.608;2023-05-29T20:22:47;25.30;51.30
22416;DHT22;12204;50.600;4.608;2023-05-29T20:27:51;25.30;51.60
22416;DHT22;12204;50.600;4.608;2023-05-29T20:32:55;25.30;51.70
22416;DHT22;12204;50.600;4.608;2023-05-29T20:37:59;25.30;51.70
22416;DHT22;12204;50.600;4.608;2023-05-29T20:43:03;25.30;52.00
22416;DHT22;12204;50.600;4.608;2023-05-29T20:48:09;25.20;51.80
22416;DHT22;12204;50.600;4.608;2023-05-29T20:53:13;25.20;51.80
22416;DHT22;12204;50.600;4.608;2023-05-29T20:58:16;25.20;51.90
22416;DHT22;12204;50.600;4.608;2023-05-29T21:03:21;25.20;52.00
22416;DHT22;12204;50.600;4.608;2023-05-29T21:08:26;25.20;52.10
22416;DHT22;12204;50.600;4.608;2023-05-29T21:13:31;25.10;52.10
22416;DHT22;12204;50.600;4.608;2023-05-29T21:18:36;25.20;52.00
22416;DHT22;12204;50.600;4.608;2023-05-29T21:23:39;25.10;52.00
22416;DHT22;12204;50.600;4.608;2023-05-29T21:28:43;25.10;52.10
22416;DHT22;12204;50.600;4.608;2023-05-29T21:33:48;25.10;52.20
22416;DHT22;12204;50.600;4.608;2023-05-29T21:38:51;25.10;52.40
22416;DHT22;12204;50.600;4.608;2023-05-29T21:43:55;25.10;52.10
22416;DHT22;12204;50.600;4.608;2023-05-29T21:49:00;25.10;52.30
22416;DHT22;12204;50.600;4.608;2023-05-29T21:54:04;25.10;52.20
22416;DHT22;12204;50.600;4.608;2023-05-29T21:59:07;25.10;52.40
22416;DHT22;12204;50.600;4.608;2023-05-29T22:04:12;25.10;52.40
22416;DHT22;12204;50.600;4.608;2023-05-29T22:09:16;25.10;53.40
22416;DHT22;12204;50.600;4.608;2023-05-29T22:14:19;25.10;53.80
22416;DHT22;12204;50.600;4.608;2023-05-29T22:19:24;25.10;54.20
22416;DHT22;12204;50.600;4.608;2023-05-29T22:24:32;25.10;54.70
22416;DHT22;12204;50.600;4.608;2023-05-29T22:29:35;25.10;55.00
22416;DHT22;12204;50.600;4.608;2023-05-29T22:34:40;25.10;55.20
22416;DHT22;12204;50.600;4.608;2023-05-29T22:39:44;25.10;55.50
22416;DHT22;12204;50.600;4.608;2023-05-29T22:44:47;25.10;56.00
22416;DHT22;12204;50.600;4.608;2023-05-29T22:49:52;25.10;56.20
22416;DHT22;12204;50.600;4.608;2023-05-29T22:54:57;25.10;56.40
22416;DHT22;12204;50.600;4.608;2023-05-29T23:00:01;25.10;56.60
22416;DHT22;12204;50.600;4.608;2023-05-29T23:05:12;25.10;56.50
22416;DHT22;12204;50.600;4.608;2023-05-29T23:10:16;25.10;56.60
22416;DHT22;12204;50.600;4.608;2023-05-29T23:15:20;25.10;56.60
22416;DHT22;12204;50.600;4.608;2023-05-29T23:20:26;25.10;56.90
22416;DHT22;12204;50.600;4.608;2023-05-29T23:25:30;25.10;56.80
22416;DHT22;12204;50.600;4.608;2023-05-29T23:30:33;25.10;57.00
22416;DHT22;12204;50.600;4.608;2023-05-29T23:35:38;25.10;57.10
22416;DHT22;12204;50.600;4.608;2023-05-29T23:40:42;25.10;57.10
22416;DHT22;12204;50.600;4.608;2023-05-29T23:45:46;25.10;57.30
22416;DHT22;12204;50.600;4.608;2023-05-29T23:50:50;25.10;57.60
22416;DHT22;12204;50.600;4.608;2023-05-29T23:55:54;25.10;57.50
